Time;durP1;ratioP1;P1;durP2;ratioP2;P2;SDS_P1;SDS_P2;PMS_P1;PMS_P2;Temp;Humidity;BMP_temperature;BMP_pressure;BME280_temperature;BME280_humidity;BME280_pressure;Samples;Min_cycle;Max_cycle;Signal;HPM_P1;HPM_P2
2021/11/03 00:03:54;;;;;;;25.87;21.30;;;;;;;7.70;100.00;99190.16;21191267;27;20315;-60
2021/11/03 00:13:58;;;;;;;24.20;19.40;;;;;;;7.73;100.00;99200.56;21211946;27;20327;-68
2021/11/03 00:24:03;;;;;;;25.17;20.57;;;;;;;7.79;100.00;99200.13;21195678;27;20735;-67
2021/11/03 00:34:07;;;;;;;22.40;18.63;;;;;;;7.81;100.00;99192.91;21203533;27;20727;-61
2021/11/03 00:44:12;;;;;;;25.10;19.93;;;;;;;7.80;100.00;99192.03;21202280;27;20258;-64
2021/11/03 00:54:15;;;;;;;21.03;18.47;;;;;;;7.76;100.00;99189.69;21141928;27;20237;-67
2021/11/03 01:04:21;;;;;;;19.13;17.00;;;;;;;7.83;100.00;99189.19;21151694;27;20248;-66
2021/11/03 01:14:24;;;;;;;21.70;17.70;;;;;;;7.90;100.00;99197.53;21128322;27;20236;-64
2021/11/03 01:24:29;;;;;;;20.27;17.00;;;;;;;7.94;100.00;99196.38;21131226;27;20603;-67
2021/11/03 01:34:33;;;;;;;24.17;20.30;;;;;;;8.06;100.00;99203.47;21126265;27;20238;-66
2021/11/03 01:44:38;;;;;;;23.43;20.20;;;;;;;8.16;100.00;99204.50;21129322;27;20229;-63
2021/11/03 01:54:44;;;;;;;28.90;22.00;;;;;;;8.24;100.00;99202.13;21131064;27;20707;-64
2021/11/03 02:04:54;;;;;;;22.10;19.67;;;;;;;8.31;100.00;99207.88;21139245;27;20254;-67
2021/11/03 02:14:58;;;;;;;24.10;20.93;;;;;;;8.35;100.00;99208.50;21137530;27;20933;-71
2021/11/03 02:25:07;;;;;;;20.97;18.53;;;;;;;8.40;100.00;99211.69;21121732;27;20228;-63
2021/11/03 02:35:11;;;;;;;23.83;18.87;;;;;;;8.40;100.00;99207.22;21050757;27;20859;-70
2021/11/03 02:45:19;;;;;;;20.63;18.43;;;;;;;8.39;100.00;99216.16;21036750;27;20239;-64
2021/11/03 02:55:26;;;;;;;23.93;21.30;;;;;;;8.35;100.00;99221.78;21058801;27;20240;-69
2021/11/03 03:05:31;;;;;;;25.23;21.10;;;;;;;8.38;100.00;99224.22;21035627;27;20229;-68
2021/11/03 03:15:35;;;;;;;21.77;19.50;;;;;;;8.36;100.00;99242.94;21057278;27;20951;-67
2021/11/03 03:25:46;;;;;;;22.10;19.70;;;;;;;8.37;100.00;99247.31;21040337;27;20717;-61
2021/11/03 03:35:51;;;;;;;22.27;19.97;;;;;;;8.39;100.00;99247.19;21049265;27;20230;-71
2021/11/03 03:45:56;;;;;;;22.73;20.43;;;;;;;8.37;100.00;99246.47;21080294;27;20225;-63
2021/11/03 03:56:00;;;;;;;22.03;19.73;;;;;;;8.33;100.00;99247.66;21074395;27;20229;-69
2021/11/03 04:06:06;;;;;;;20.43;18.43;;;;;;;8.32;100.00;99246.81;21054874;27;20666;-70
2021/11/03 04:16:10;;;;;;;19.43;17.37;;;;;;;8.30;100.00;99249.53;21031059;27;20313;-60
2021/11/03 04:26:27;;;;;;;20.10;18.00;;;;;;;8.27;100.00;99259.53;21061649;27;20229;-68
2021/11/03 04:36:36;;;;;;;19.83;17.83;;;;;;;8.16;100.00;99268.28;21046094;27;20229;-72
2021/11/03 04:46:42;;;;;;;18.63;16.67;;;;;;;8.10;100.00;99273.16;21068867;27;20316;-71
2021/11/03 04:56:49;;;;;;;19.97;17.87;;;;;;;8.11;100.00;99283.69;21082073;27;20239;-71
2021/11/03 05:06:55;;;;;;;19.20;17.20;;;;;;;8.16;100.00;99305.47;21095564;27;20235;-69
2021/11/03 05:16:59;;;;;;;23.17;20.67;;;;;;;8.18;100.00;99321.31;21055230;27;20332;-60
2021/11/03 05:27:05;;;;;;;19.33;17.33;;;;;;;8.10;100.00;99327.16;21053196;27;20226;-62
2021/11/03 05:37:10;;;;;;;20.13;18.10;;;;;;;8.15;100.00;99340.97;21090193;27;20228;-63
2021/11/03 05:47:23;;;;;;;18.20;15.87;;;;;;;8.21;100.00;99351.16;21080681;28;20229;-59
2021/11/03 05:57:29;;;;;;;18.70;16.80;;;;;;;8.18;100.00;99356.72;21095756;27;20256;-66
2021/11/03 06:07:39;;;;;;;19.87;17.87;;;;;;;8.28;100.00;99383.50;21025538;27;20324;-58
2021/11/03 06:17:43;;;;;;;18.33;16.10;;;;;;;8.30;100.00;99393.06;21055984;28;20319;-67
2021/11/03 06:27:48;;;;;;;18.27;16.43;;;;;;;8.15;100.00;99420.69;21041042;28;20578;-65
2021/11/03 06:37:52;;;;;;;18.63;16.73;;;;;;;8.33;100.00;99428.41;21005397;27;20226;-59
2021/11/03 06:47:57;;;;;;;19.57;17.00;;;;;;;8.40;100.00;99434.97;20984647;28;20306;-62
2021/11/03 06:58:03;;;;;;;19.67;17.57;;;;;;;8.28;100.00;99461.41;20968356;28;20269;-61
2021/11/03 07:08:08;;;;;;;17.47;14.87;;;;;;;8.44;100.00;99465.72;20955837;28;20233;-68
2021/11/03 07:18:12;;;;;;;17.80;15.43;;;;;;;8.72;100.00;99473.47;20972645;28;20237;-61
2021/11/03 07:28:18;;;;;;;17.43;15.20;;;;;;;8.94;100.00;99478.13;20951702;28;20422;-65
2021/11/03 07:38:21;;;;;;;19.97;17.87;;;;;;;8.86;100.00;99489.31;20991517;28;20229;-68
2021/11/03 07:48:28;;;;;;;19.60;16.57;;;;;;;9.06;100.00;99503.03;20953296;28;20722;-63
2021/11/03 07:58:34;;;;;;;20.00;16.87;;;;;;;9.40;100.00;99518.28;20975517;28;20238;-62
2021/11/03 08:08:50;;;;;;;21.50;17.07;;;;;;;9.74;100.00;99520.19;20974789;28;20249;-66
2021/11/03 08:18:55;;;;;;;23.70;20.10;;;;;;;9.97;100.00;99534.47;20979785;28;20237;-67
2021/11/03 08:29:00;;;;;;;22.07;19.67;;;;;;;10.00;100.00;99541.41;20979545;28;20231;-63
2021/11/03 08:39:06;;;;;;;21.73;17.37;;;;;;;10.70;100.00;99558.28;20970224;28;20318;-65
2021/11/03 08:49:11;;;;;;;19.43;17.50;;;;;;;11.15;100.00;99561.84;20985610;28;20591;-67
2021/11/03 08:59:15;;;;;;;20.43;18.33;;;;;;;11.30;100.00;99574.97;20962304;28;20705;-59
2021/11/03 09:09:20;;;;;;;19.20;17.33;;;;;;;11.01;100.00;99572.75;20983420;28;20223;-64
2021/11/03 09:19:28;;;;;;;20.53;18.40;;;;;;;11.15;100.00;99591.22;20961162;28;20234;-60
2021/11/03 09:29:34;;;;;;;17.20;15.60;;;;;;;11.24;100.00;99600.31;20981460;28;20641;-62
2021/11/03 09:39:39;;;;;;;19.10;17.13;;;;;;;11.33;100.00;99596.09;20965344;28;20227;-60
2021/11/03 09:49:54;;;;;;;18.70;16.87;;;;;;;11.65;100.00;99613.09;20975378;28;20584;-63
2021/11/03 10:00:07;;;;;;;20.27;18.27;;;;;;;11.38;100.00;99609.94;20971154;28;20238;-61
2021/11/03 10:10:21;;;;;;;19.57;17.57;;;;;;;11.48;100.00;99625.09;20966520;28;20665;-65
2021/11/03 10:20:31;;;;;;;17.93;16.10;;;;;;;11.39;100.00;99627.66;20976025;28;20713;-67
2021/11/03 10:30:48;;;;;;;16.20;14.57;;;;;;;12.18;100.00;99621.31;20957956;28;20311;-68
2021/11/03 10:40:58;;;;;;;13.47;12.37;;;;;;;13.00;100.00;99627.75;20976813;28;20234;-65
2021/11/03 10:51:16;;;;;;;15.00;13.53;;;;;;;12.47;100.00;99629.59;20953524;28;20232;-66
2021/11/03 11:01:28;;;;;;;16.80;15.23;;;;;;;12.22;100.00;99628.09;20974451;28;20242;-65
2021/11/03 11:11:38;;;;;;;12.77;11.43;;;;;;;13.20;100.00;99637.63;20953970;28;20224;-69
2021/11/03 11:21:46;;;;;;;11.63;10.43;;;;;;;13.64;100.00;99636.44;20972498;28;20305;-61
2021/11/03 11:31:57;;;;;;;10.90;9.57;;;;;;;13.93;100.00;99651.81;20959116;28;20230;-61
2021/11/03 11:42:07;;;;;;;12.13;10.37;;;;;;;14.32;100.00;99636.66;20965376;28;20647;-60
2021/11/03 11:52:14;;;;;;;9.90;9.00;;;;;;;13.99;100.00;99641.41;20964843;28;20330;-60
2021/11/03 12:02:22;;;;;;;8.70;7.87;;;;;;;13.32;100.00;99641.09;20957696;28;20231;-66
2021/11/03 12:12:27;;;;;;;7.97;7.27;;;;;;;12.97;100.00;99641.41;20953744;28;20725;-61
2021/11/03 12:22:51;;;;;;;9.53;8.53;;;;;;;12.61;100.00;99638.16;20954385;28;20280;-62
2021/11/03 12:33:02;;;;;;;7.33;6.73;;;;;;;12.68;100.00;99635.00;20970910;28;20227;-68
2021/11/03 12:43:20;;;;;;;8.07;7.27;;;;;;;12.99;100.00;99636.78;20950245;28;20238;-64
2021/11/03 12:53:33;;;;;;;7.33;6.63;;;;;;;13.66;100.00;99636.31;20985562;28;20297;-66
2021/11/03 13:03:38;;;;;;;6.50;5.87;;;;;;;13.60;100.00;99629.69;20965448;28;20223;-63
2021/11/03 13:13:49;;;;;;;7.87;6.07;;;;;;;13.18;100.00;99654.81;20980801;28;20230;-67
2021/11/03 13:23:57;;;;;;;6.80;6.10;;;;;;;12.81;100.00;99670.44;20969801;28;20245;-62
2021/11/03 13:34:18;;;;;;;5.37;4.90;;;;;;;12.47;100.00;99675.94;20972709;28;20299;-68
2021/11/03 13:44:37;;;;;;;4.83;4.33;;;;;;;12.15;100.00;99680.38;20974448;28;20235;-60
2021/11/03 13:54:53;;;;;;;6.20;4.53;;;;;;;11.81;100.00;99683.09;20966278;28;20250;-64
2021/11/03 14:04:56;;;;;;;5.43;4.53;;;;;;;11.41;100.00;99679.16;20979473;28;20715;-68
2021/11/03 14:15:01;;;;;;;6.60;5.80;;;;;;;11.08;100.00;99707.50;20956426;28;20313;-61
2021/11/03 14:25:18;;;;;;;6.30;5.40;;;;;;;10.82;100.00;99711.28;20977714;28;20289;-60
2021/11/03 14:35:25;;;;;;;5.33;4.90;;;;;;;10.50;100.00;99718.16;20955001;28;20230;-66
2021/11/03 14:45:34;;;;;;;7.70;5.40;;;;;;;9.76;100.00;99711.91;20975074;28;20233;-68
2021/11/03 14:55:41;;;;;;;20.17;9.13;;;;;;;8.90;100.00;99708.97;20957356;28;20254;-66
2021/11/03 15:05:45;;;;;;;23.00;12.10;;;;;;;8.20;100.00;99705.59;20970689;28;20232;-66
2021/11/03 15:15:52;;;;;;;71.70;24.63;;;;;;;7.53;100.00;99699.22;20965707;28;20233;-66
2021/11/03 15:25:57;;;;;;;19.10;11.57;;;;;;;6.98;100.00;99708.81;21043039;27;20234;-68
2021/11/03 15:56:07;;;;;;;9.73;7.63;;;;;;;6.14;100.00;99735.72;20813931;27;20680;-59
2021/11/03 17:02:22;;;;;;;39.43;24.07;;;;;;;6.09;100.00;99785.41;20881995;27;20972;-58
2021/11/03 18:12:23;;;;;;;19.20;15.47;;;;;;;5.98;100.00;99787.78;21043113;27;20300;-67
2021/11/03 19:51:59;;;;;;;17.97;14.53;;;;;;;7.46;100.00;99755.44;21083473;27;1330282;-61
2021/11/03 20:21:58;;;;;;;16.10;12.80;;;;;;;7.87;100.00;99795.38;20970322;27;20637;-60
2021/11/03 21:31:54;;;;;;;16.67;13.73;;;;;;;8.41;100.00;99782.28;20933205;27;20577;-57
